Aviation Digital Data Service (ADDS)

Output produced by METARs form (2150 UTC 25 February 2018)
found at http://aviationweather.gov/adds/metars/
 
KMSY 252011Z 2520/2624 09012KT P6SM FEW015 SCT030 BKN090 
     TEMPO 2520/2522 BKN030 
     FM252200 12010KT P6SM VCSH SCT030 BKN040 
     FM260300 15007KT 6SM -RA SCT010 OVC025 
     PROB30 2606/2610 4SM TS BKN015CB 
     FM261000 24006KT 5SM TSRA BR OVC008CB 
     FM261300 34006KT 4SM BR OVC008 
     FM261700 02007KT P6SM BKN015